KEWR/EWR METAR and TAF weather

Enter ICAO airport designator
Station Type Date Time Source
KEWR METAR 2019/12/06 01:51 UTC NOAA

KEWR 060151Z 29014G20KT 10SM FEW045 SCT060 03/M06 A3004 RMK AO2 SLP172 T00331056


Station Type Date Time Source
KEWR Decoded METAR 2019/12/06 01:51 UTC NOAA

NEWARK INTERNATIONAL AIRPORT, NJ, United States (KEWR) 40-41N 74-10W 7M
Dec 05, 2019 - 08:51 PM EST / 2019.12.06 0151 UTC
Wind: from the WNW (290 degrees) at 16 MPH (14 KT) gusting to 23 MPH (20 KT):0
Visibility: 10 mile(s):0
Sky conditions: partly cloudy
Temperature: 37.9 F (3.3 C)
Dew Point: 21.9 F (-5.6 C)
Relative Humidity: 52%
Pressure (altimeter): 30.04 in. Hg (1017 hPa)
ob: KEWR 060151Z 29014G20KT 10SM FEW045 SCT060 03/M06 A3004 RMK AO2 SLP172 T00331056
cycle: 2

Station Type Date Time Source
KEWR TAF 2019/12/06 02:03 UTC NOAA

TAF
AMD KEWR 060200Z 0602/0706 29012G20KT P6SM SCT050
FM060400 29012KT P6SM FEW050
FM060700 28007KT P6SM SCT250
FM061200 23006KT P6SM BKN100
FM061500 22010KT P6SM OVC080
FM061700 22012G19KT P6SM SCT050 OVC080
FM062200 25013G21KT P6SM BKN050 OVC080
FM070100 31013G21KT P6SM FEW050

Example: see airport list